createdAt,value
2019-01-24T00:00:51.228Z,72.44
2019-01-24T00:01:51.170Z,71.91
2019-01-24T00:02:51.170Z,72.33
2019-01-24T00:03:51.141Z,72.22
2019-01-24T00:04:51.130Z,72.02
2019-01-24T00:05:51.122Z,71.94
2019-01-24T00:06:51.133Z,71.91
2019-01-24T00:07:51.135Z,72.15
2019-01-24T00:08:51.103Z,72.67
2019-01-24T00:09:51.083Z,72.47
2019-01-24T00:10:51.088Z,73.10
2019-01-24T00:11:51.055Z,72.57
2019-01-24T00:12:51.061Z,72.57
2019-01-24T00:13:51.072Z,72.78
2019-01-24T00:14:51.036Z,72.89
2019-01-24T00:15:51.026Z,73.41
2019-01-24T00:16:51.004Z,72.67
2019-01-24T00:17:51.000Z,72.75
2019-01-24T00:18:51.020Z,72.22
2019-01-24T00:19:50.984Z,72.33
2019-01-24T00:20:50.998Z,72.33
2019-01-24T00:21:50.967Z,72.44
2019-01-24T00:22:50.945Z,71.66
2019-01-24T00:23:50.980Z,72.02
2019-01-24T00:24:50.927Z,72.05
2019-01-24T00:25:50.905Z,72.54
2019-01-24T00:26:50.906Z,72.22
2019-01-24T00:27:50.909Z,72.33
2019-01-24T00:28:51.105Z,72.12
2019-01-24T00:29:50.880Z,71.70
2019-01-24T00:30:50.866Z,71.59
2019-01-24T00:31:50.856Z,72.44
2019-01-24T00:32:51.211Z,72.44
2019-01-24T00:33:50.841Z,72.44
2019-01-24T00:34:51.243Z,72.33
2019-01-24T00:35:50.816Z,71.91
2019-01-24T00:36:50.794Z,72.44
2019-01-24T00:37:50.790Z,71.70
2019-01-24T00:38:50.786Z,72.75
2019-01-24T00:39:50.806Z,71.80
2019-01-24T00:40:50.765Z,71.91
2019-01-24T00:41:50.759Z,72.02
2019-01-24T00:42:50.730Z,71.91
2019-01-24T00:43:50.717Z,72.12
2019-01-24T00:44:50.705Z,71.80
2019-01-24T00:45:50.715Z,71.48
2019-01-24T00:46:50.701Z,71.48
2019-01-24T00:47:50.686Z,72.33
2019-01-24T00:48:50.675Z,72.02
2019-01-24T00:49:50.684Z,71.80
2019-01-24T00:50:50.673Z,72.12
2019-01-24T00:51:50.644Z,71.80
2019-01-24T00:52:50.629Z,72.08
2019-01-24T00:53:50.635Z,71.91
2019-01-24T00:54:50.605Z,71.91
2019-01-24T00:55:50.618Z,71.45
2019-01-24T00:56:50.582Z,71.91
2019-01-24T00:57:50.569Z,71.91
2019-01-24T00:58:50.571Z,72.33
2019-01-24T00:59:50.561Z,70.43
2019-01-24T01:00:50.572Z,70.78
2019-01-24T01:01:50.537Z,72.12
2019-01-24T01:02:50.518Z,71.91
2019-01-24T01:03:50.504Z,71.70
2019-01-24T01:04:50.521Z,71.59
2019-01-24T01:05:50.519Z,72.12
2019-01-24T01:06:50.475Z,71.91
2019-01-24T01:07:50.473Z,71.48
2019-01-24T01:08:50.468Z,72.02
2019-01-24T01:09:50.438Z,70.75
2019-01-24T01:10:50.447Z,71.38
2019-01-24T01:11:50.458Z,70.78
2019-01-24T01:12:50.440Z,72.12
2019-01-24T01:13:50.426Z,72.15
2019-01-24T01:14:50.409Z,72.02
2019-01-24T01:15:50.374Z,72.12
2019-01-24T01:16:50.363Z,72.02
2019-01-24T01:17:50.372Z,72.75
2019-01-24T01:18:50.617Z,72.12
2019-01-24T01:19:50.343Z,72.22
2019-01-24T01:20:50.324Z,71.59
2019-01-24T01:21:50.316Z,71.38
2019-01-24T01:22:50.343Z,71.35
2019-01-24T01:23:50.311Z,71.38
2019-01-24T01:24:50.316Z,72.02
2019-01-24T01:25:50.286Z,72.12
2019-01-24T01:26:50.255Z,71.80
2019-01-24T01:27:50.255Z,72.12
2019-01-24T01:28:50.260Z,72.02
2019-01-24T01:29:50.240Z,72.02
2019-01-24T01:30:50.235Z,71.77
2019-01-24T01:31:50.221Z,71.91
2019-01-24T01:32:50.206Z,71.77
2019-01-24T01:33:50.213Z,71.91
2019-01-24T01:34:50.205Z,72.30
2019-01-24T01:35:50.182Z,71.38
2019-01-24T01:36:50.162Z,71.17
2019-01-24T01:37:50.156Z,71.17
2019-01-24T01:38:50.162Z,70.72
2019-01-24T01:39:50.143Z,70.75
2019-01-24T01:40:50.113Z,71.38
2019-01-24T01:41:50.120Z,71.28
2019-01-24T01:42:50.101Z,70.72
2019-01-24T01:43:50.109Z,71.17
2019-01-24T01:44:50.079Z,71.28
2019-01-24T01:45:50.072Z,71.38
2019-01-24T01:46:50.046Z,71.70
2019-01-24T01:47:50.038Z,72.19
2019-01-24T01:48:50.054Z,72.12
2019-01-24T01:49:50.034Z,71.77
2019-01-24T01:50:50.012Z,71.28
2019-01-24T01:51:50.003Z,72.02
2019-01-24T01:52:49.986Z,70.75
2019-01-24T01:53:49.967Z,71.17
2019-01-24T01:54:49.995Z,71.17
2019-01-24T01:55:49.986Z,72.22
2019-01-24T01:56:49.949Z,71.59
2019-01-24T01:57:49.941Z,71.91
2019-01-24T01:58:49.952Z,71.77
2019-01-24T01:59:49.908Z,71.59
2019-01-24T02:00:49.904Z,71.45
2019-01-24T02:01:49.892Z,72.02
2019-01-24T02:02:49.892Z,72.02
2019-01-24T02:03:49.901Z,71.56
2019-01-24T02:04:49.872Z,70.64
2019-01-24T02:05:49.851Z,71.56
2019-01-24T02:06:49.837Z,72.12
2019-01-24T02:07:49.821Z,71.48
2019-01-24T02:08:49.825Z,71.59
2019-01-24T02:09:49.833Z,71.38
2019-01-24T02:10:49.804Z,72.02
2019-01-24T02:11:49.782Z,72.08
2019-01-24T02:12:49.784Z,72.08
2019-01-24T02:13:49.788Z,71.91
2019-01-24T02:14:49.757Z,71.66
2019-01-24T02:15:49.743Z,72.08
2019-01-24T02:16:49.736Z,72.08
2019-01-24T02:17:49.725Z,71.98
2019-01-24T02:18:49.724Z,71.56
2019-01-24T02:19:49.692Z,72.02
2019-01-24T02:20:49.686Z,72.40
2019-01-24T02:21:49.675Z,71.88
2019-01-24T02:22:49.685Z,72.19
2019-01-24T02:23:49.698Z,72.40
2019-01-24T02:24:49.658Z,71.66
2019-01-24T02:25:49.630Z,71.56
2019-01-24T02:26:49.748Z,71.56
2019-01-24T02:27:49.617Z,71.77
2019-01-24T02:28:49.615Z,71.98
2019-01-24T02:29:49.591Z,71.77
2019-01-24T02:30:49.639Z,72.19
2019-01-24T02:31:49.570Z,71.56
2019-01-24T02:32:49.569Z,72.19
2019-01-24T02:33:49.581Z,72.61
2019-01-24T02:34:49.870Z,71.56
2019-01-24T02:35:49.532Z,72.40
2019-01-24T02:36:49.525Z,71.98
2019-01-24T02:37:49.512Z,72.33
2019-01-24T02:38:49.492Z,72.50
2019-01-24T02:39:49.511Z,71.88
2019-01-24T02:40:49.499Z,71.77
2019-01-24T02:41:49.486Z,72.08
2019-01-24T02:42:49.444Z,71.66
2019-01-24T02:43:49.484Z,72.30
2019-01-24T02:44:49.460Z,72.40
2019-01-24T02:45:49.429Z,72.30
2019-01-24T02:46:49.419Z,71.45
2019-01-24T02:47:49.422Z,71.77
2019-01-24T02:48:49.401Z,71.77
2019-01-24T02:49:49.409Z,71.77
2019-01-24T02:50:49.379Z,71.56
2019-01-24T02:51:49.350Z,72.30
2019-01-24T02:52:49.364Z,71.77
2019-01-24T02:53:49.338Z,72.50
2019-01-24T02:54:49.355Z,72.30
2019-01-24T02:55:49.318Z,73.24
2019-01-24T02:56:49.319Z,72.30
2019-01-24T02:57:49.322Z,71.77
2019-01-24T02:58:49.297Z,71.66
2019-01-24T02:59:49.304Z,71.88
2019-01-24T03:00:49.263Z,71.80
2019-01-24T03:01:49.260Z,72.02
2019-01-24T03:02:49.244Z,72.40
2019-01-24T03:03:49.238Z,72.40
2019-01-24T03:04:49.240Z,72.40
2019-01-24T03:05:49.206Z,71.56
2019-01-24T03:06:49.200Z,72.33
2019-01-24T03:07:49.187Z,72.19
2019-01-24T03:08:49.182Z,72.44
2019-01-24T03:09:49.202Z,73.46
2019-01-24T03:10:49.150Z,72.61
2019-01-24T03:11:49.161Z,72.72
2019-01-24T03:12:49.155Z,72.40
2019-01-24T03:13:49.141Z,72.30
2019-01-24T03:14:49.111Z,72.82
2019-01-24T03:15:49.130Z,72.82
2019-01-24T03:16:49.086Z,72.40
2019-01-24T03:17:49.120Z,72.92
2019-01-24T03:18:49.075Z,72.40
2019-01-24T03:19:49.066Z,72.82
2019-01-24T03:20:49.082Z,72.40
2019-01-24T03:21:49.047Z,72.40
2019-01-24T03:22:49.048Z,72.92
2019-01-24T03:23:49.013Z,72.40
2019-01-24T03:24:49.006Z,72.72
2019-01-24T03:25:48.992Z,72.61
2019-01-24T03:26:49.014Z,72.61
2019-01-24T03:27:48.985Z,73.56
2019-01-24T03:28:48.965Z,72.82
2019-01-24T03:29:48.961Z,72.75
2019-01-24T03:30:48.947Z,72.92
2019-01-24T03:31:48.974Z,72.08
2019-01-24T03:32:48.938Z,72.19
2019-01-24T03:33:48.921Z,72.40
2019-01-24T03:34:48.904Z,71.88
2019-01-24T03:35:48.893Z,72.75
2019-01-24T03:36:48.874Z,72.92
2019-01-24T03:37:48.880Z,73.46
2019-01-24T03:38:48.856Z,72.72
2019-01-24T03:39:48.851Z,72.82
2019-01-24T03:40:48.835Z,72.92
2019-01-24T03:41:48.839Z,72.40
2019-01-24T03:42:48.845Z,72.08
2019-01-24T03:43:48.799Z,72.40
2019-01-24T03:44:48.799Z,71.91
2019-01-24T03:45:48.800Z,72.22
2019-01-24T03:46:48.777Z,72.40
2019-01-24T03:47:48.760Z,72.22
2019-01-24T03:48:48.764Z,72.54
2019-01-24T03:49:48.734Z,72.19
2019-01-24T03:50:48.735Z,72.44
2019-01-24T03:51:48.736Z,72.61
2019-01-24T03:52:48.717Z,72.92
2019-01-24T03:53:48.725Z,72.30
2019-01-24T03:54:48.681Z,73.07
2019-01-24T03:55:48.674Z,72.75
2019-01-24T03:56:48.665Z,72.33
2019-01-24T03:57:48.650Z,72.19
2019-01-24T03:58:48.655Z,72.75
2019-01-24T03:59:48.663Z,72.44
2019-01-24T04:00:48.664Z,72.61
2019-01-24T04:01:48.616Z,72.82
2019-01-24T04:02:48.609Z,72.30
2019-01-24T04:03:48.608Z,72.50
2019-01-24T04:04:48.594Z,72.08
2019-01-24T04:05:48.570Z,72.40
2019-01-24T04:06:48.607Z,72.50
2019-01-24T04:07:48.550Z,72.44
2019-01-24T04:08:48.545Z,72.40
2019-01-24T04:09:48.550Z,72.40
2019-01-24T04:10:48.537Z,72.30
2019-01-24T04:11:48.508Z,72.50
2019-01-24T04:12:48.499Z,73.35
2019-01-24T04:13:48.490Z,72.86
2019-01-24T04:14:48.483Z,73.03
2019-01-24T04:15:48.490Z,72.30
2019-01-24T04:16:48.465Z,72.40
2019-01-24T04:17:48.479Z,73.03
2019-01-24T04:18:48.437Z,72.96
2019-01-24T04:19:48.425Z,72.82
2019-01-24T04:20:48.414Z,72.30
2019-01-24T04:21:48.396Z,72.86
2019-01-24T04:22:48.399Z,73.24
2019-01-24T04:23:48.420Z,73.38
2019-01-24T04:24:48.393Z,73.07
2019-01-24T04:25:48.357Z,73.38
2019-01-24T04:26:48.360Z,74.19
2019-01-24T04:27:48.344Z,73.77
2019-01-24T04:28:48.314Z,73.35
2019-01-24T04:29:48.612Z,72.30
2019-01-24T04:30:48.317Z,73.07
2019-01-24T04:31:48.342Z,73.88
2019-01-24T04:32:48.281Z,73.98
2019-01-24T04:33:48.270Z,73.98
2019-01-24T04:34:48.270Z,73.46
2019-01-24T04:35:48.277Z,73.91
2019-01-24T04:36:48.265Z,73.46
2019-01-24T04:37:48.239Z,73.80
2019-01-24T04:38:48.208Z,73.77
2019-01-24T04:39:48.213Z,74.33
2019-01-24T04:40:48.218Z,73.70
2019-01-24T04:41:48.186Z,73.98
2019-01-24T04:42:48.202Z,72.96
2019-01-24T04:43:48.169Z,73.77
2019-01-24T04:44:48.157Z,73.56
2019-01-24T04:45:48.175Z,73.14
2019-01-24T04:46:48.126Z,73.35
2019-01-24T04:47:48.127Z,73.98
2019-01-24T04:48:48.116Z,72.75
2019-01-24T04:49:48.107Z,72.72
2019-01-24T04:50:48.082Z,72.30
2019-01-24T04:51:48.107Z,72.40
2019-01-24T04:52:48.064Z,73.59
2019-01-24T04:53:48.057Z,72.82
2019-01-24T04:54:48.051Z,72.22
2019-01-24T04:55:48.042Z,71.91
2019-01-24T04:56:48.027Z,71.88
2019-01-24T04:57:48.043Z,72.22
2019-01-24T04:58:48.005Z,71.94
2019-01-24T04:59:47.993Z,72.33
2019-01-24T05:00:47.978Z,72.22
2019-01-24T05:01:47.979Z,72.86
2019-01-24T05:02:47.988Z,72.75
2019-01-24T05:03:47.963Z,72.54
2019-01-24T05:04:48.000Z,73.17
2019-01-24T05:05:47.931Z,72.22
2019-01-24T05:06:47.921Z,72.22
2019-01-24T05:07:47.938Z,72.86
2019-01-24T05:08:48.522Z,72.75
2019-01-24T05:09:47.906Z,72.33
2019-01-24T05:10:47.879Z,72.44
2019-01-24T05:11:47.863Z,72.33
2019-01-24T05:12:47.867Z,72.02
2019-01-24T05:13:48.599Z,72.25
2019-01-24T05:14:47.840Z,72.15
2019-01-24T05:15:47.839Z,71.94
2019-01-24T05:16:47.822Z,72.36
2019-01-24T05:17:47.814Z,71.73
2019-01-24T05:18:47.794Z,71.62
2019-01-24T05:19:47.798Z,71.97
2019-01-24T05:20:47.780Z,72.36
2019-01-24T05:21:47.776Z,72.57
2019-01-24T05:22:47.773Z,72.25
2019-01-24T05:23:47.785Z,73.41
2019-01-24T05:24:47.723Z,72.89
2019-01-24T05:25:47.716Z,73.52
2019-01-24T05:26:47.715Z,73.73
2019-01-24T05:27:47.701Z,73.83
2019-01-24T05:28:47.701Z,73.52
2019-01-24T05:29:47.721Z,72.25
2019-01-24T05:30:47.667Z,72.67
2019-01-24T05:31:47.667Z,72.25
2019-01-24T05:32:47.641Z,72.78
2019-01-24T05:33:47.643Z,72.47
2019-01-24T05:34:47.634Z,73.21
2019-01-24T05:35:47.680Z,72.47
2019-01-24T05:36:47.597Z,72.25
2019-01-24T05:37:47.601Z,72.36
2019-01-24T05:38:47.588Z,72.67
2019-01-24T05:39:47.599Z,72.36
2019-01-24T05:40:47.584Z,72.25
2019-01-24T05:41:47.567Z,71.83
2019-01-24T05:42:47.538Z,73.10
2019-01-24T05:43:47.526Z,72.15
2019-01-24T05:44:47.543Z,72.25
2019-01-24T05:45:47.527Z,72.25
2019-01-24T05:46:47.498Z,71.83
2019-01-24T05:47:47.483Z,72.15
2019-01-24T05:48:47.480Z,71.94
2019-01-24T05:49:47.480Z,71.94
2019-01-24T05:50:47.478Z,71.73
2019-01-24T05:51:47.457Z,71.48
2019-01-24T05:52:47.433Z,71.83
2019-01-24T05:53:47.418Z,71.94
2019-01-24T05:54:47.431Z,71.41
2019-01-24T05:55:47.397Z,70.99
2019-01-24T05:56:47.405Z,70.99
2019-01-24T05:57:47.368Z,72.15
2019-01-24T05:58:47.373Z,71.62
2019-01-24T05:59:47.356Z,70.57
2019-01-24T06:00:47.350Z,71.31
2019-01-24T06:01:47.342Z,71.20
2019-01-24T06:02:47.335Z,70.89
2019-01-24T06:03:47.350Z,71.20
2019-01-24T06:04:47.300Z,71.31
2019-01-24T06:05:47.287Z,71.31
2019-01-24T06:06:47.291Z,72.15
2019-01-24T06:07:47.299Z,72.25
2019-01-24T06:08:47.277Z,72.05
2019-01-24T06:09:47.276Z,71.73
2019-01-24T06:10:47.249Z,72.89
2019-01-24T06:11:47.239Z,72.89
2019-01-24T06:12:47.242Z,72.47
2019-01-24T06:13:47.213Z,72.25
2019-01-24T06:14:47.207Z,72.47
2019-01-24T06:15:47.203Z,72.36
2019-01-24T06:16:47.199Z,72.78
2019-01-24T06:17:47.170Z,73.52
2019-01-24T06:18:47.177Z,72.25
2019-01-24T06:19:47.152Z,72.36
2019-01-24T06:20:47.183Z,72.36
2019-01-24T06:21:47.130Z,72.36
2019-01-24T06:22:47.133Z,72.25
2019-01-24T06:23:47.102Z,72.47
2019-01-24T06:24:47.101Z,72.67
2019-01-24T06:25:47.089Z,72.47
2019-01-24T06:26:47.070Z,73.41
2019-01-24T06:27:47.048Z,72.36
2019-01-24T06:28:47.064Z,72.33
2019-01-24T06:29:47.048Z,72.67
2019-01-24T06:30:47.043Z,71.94
2019-01-24T06:31:47.018Z,72.05
2019-01-24T06:32:47.027Z,72.47
2019-01-24T06:33:47.028Z,72.89
2019-01-24T06:34:46.981Z,72.36
2019-01-24T06:35:48.847Z,72.36
2019-01-24T06:36:46.973Z,71.94
2019-01-24T06:37:46.951Z,71.91
2019-01-24T06:38:46.943Z,72.05
2019-01-24T06:39:46.953Z,72.05
2019-01-24T06:40:46.919Z,71.62
2019-01-24T06:41:46.905Z,71.20
2019-01-24T06:42:46.901Z,72.05
2019-01-24T06:43:46.893Z,72.25
2019-01-24T06:44:46.897Z,71.62
2019-01-24T06:45:46.866Z,71.83
2019-01-24T06:46:46.856Z,70.78
2019-01-24T06:47:46.843Z,71.83
2019-01-24T06:48:46.854Z,71.31
2019-01-24T06:49:46.831Z,71.94
2019-01-24T06:50:46.838Z,71.52
2019-01-24T06:51:46.803Z,71.31
2019-01-24T06:52:46.799Z,71.73
2019-01-24T06:53:46.811Z,71.41
2019-01-24T06:54:46.759Z,71.52
2019-01-24T06:55:46.760Z,72.25
2019-01-24T06:56:46.747Z,72.05
2019-01-24T06:57:46.795Z,71.83
2019-01-24T06:58:46.726Z,71.52
2019-01-24T06:59:46.725Z,72.15
2019-01-24T07:00:46.697Z,72.05
2019-01-24T07:01:46.696Z,71.73
2019-01-24T07:02:46.697Z,72.15
2019-01-24T07:03:46.697Z,71.52
2019-01-24T07:04:46.663Z,72.15
2019-01-24T07:05:46.720Z,71.83
2019-01-24T07:06:46.637Z,72.15
2019-01-24T07:07:46.635Z,70.99
2019-01-24T07:08:46.680Z,71.41
2019-01-24T07:09:46.612Z,71.83
2019-01-24T07:10:46.613Z,70.78
2019-01-24T07:11:46.664Z,71.10
2019-01-24T07:12:46.580Z,72.15
2019-01-24T07:13:46.568Z,71.94
2019-01-24T07:14:46.584Z,71.83
2019-01-24T07:15:46.560Z,71.41
2019-01-24T07:16:46.553Z,70.67
2019-01-24T07:17:46.576Z,71.10
2019-01-24T07:18:46.507Z,72.08
2019-01-24T07:19:46.523Z,72.15
2019-01-24T07:20:47.092Z,71.10
2019-01-24T07:21:46.472Z,71.10
2019-01-24T07:22:47.070Z,71.41
2019-01-24T07:23:46.511Z,70.99
2019-01-24T07:24:46.450Z,70.99
2019-01-24T07:25:46.450Z,71.20
2019-01-24T07:26:46.437Z,71.83
2019-01-24T07:27:46.404Z,71.31
2019-01-24T07:28:46.405Z,71.20
2019-01-24T07:29:46.459Z,71.20
2019-01-24T07:30:46.380Z,70.67
2019-01-24T07:31:46.366Z,71.38
2019-01-24T07:32:46.360Z,70.54
2019-01-24T07:33:46.345Z,70.78
2019-01-24T07:34:46.341Z,70.78
2019-01-24T07:35:46.352Z,70.47
2019-01-24T07:36:46.328Z,70.64
2019-01-24T07:37:46.347Z,71.20
2019-01-24T07:38:46.292Z,70.99
2019-01-24T07:39:46.296Z,70.78
2019-01-24T07:40:46.299Z,70.78
2019-01-24T07:41:46.264Z,70.71
2019-01-24T07:42:46.268Z,70.89
2019-01-24T07:43:46.249Z,70.99
2019-01-24T07:44:46.248Z,71.45
2019-01-24T07:45:46.218Z,72.08
2019-01-24T07:46:46.222Z,71.34
2019-01-24T07:47:46.235Z,71.55
2019-01-24T07:48:46.242Z,72.08
2019-01-24T07:49:46.197Z,72.36
2019-01-24T07:50:46.180Z,72.47
2019-01-24T07:51:46.160Z,72.15
2019-01-24T07:52:46.168Z,71.94
2019-01-24T07:53:46.136Z,71.52
2019-01-24T07:54:46.141Z,71.31
2019-01-24T07:55:46.122Z,71.31
2019-01-24T07:56:46.123Z,71.41
2019-01-24T07:57:46.124Z,71.20
2019-01-24T07:58:46.081Z,70.92
2019-01-24T07:59:46.083Z,71.55
2019-01-24T08:00:46.077Z,71.87
2019-01-24T08:01:46.062Z,72.39
2019-01-24T08:02:46.047Z,72.50
2019-01-24T08:03:46.026Z,72.61
2019-01-24T08:04:46.022Z,72.57
2019-01-24T08:05:46.005Z,72.67
2019-01-24T08:06:45.999Z,71.62
2019-01-24T08:07:46.162Z,71.83
2019-01-24T08:08:45.987Z,72.67
2019-01-24T08:09:45.969Z,72.57
2019-01-24T08:10:45.975Z,72.22
2019-01-24T08:11:46.010Z,71.62
2019-01-24T08:12:45.959Z,71.94
2019-01-24T08:13:45.957Z,72.15
2019-01-24T08:14:45.931Z,71.94
2019-01-24T08:15:45.926Z,71.94
2019-01-24T08:16:45.913Z,72.78
2019-01-24T08:17:45.903Z,72.36
2019-01-24T08:18:45.900Z,71.94
2019-01-24T08:19:45.886Z,71.83
2019-01-24T08:20:45.890Z,72.15
2019-01-24T08:21:45.875Z,71.52
2019-01-24T08:22:45.869Z,72.36
2019-01-24T08:23:45.830Z,71.52
2019-01-24T08:24:45.803Z,71.73
2019-01-24T08:25:45.799Z,72.02
2019-01-24T08:26:45.796Z,72.05
2019-01-24T08:27:45.841Z,71.91
2019-01-24T08:28:45.774Z,72.25
2019-01-24T08:29:45.764Z,71.80
2019-01-24T08:30:45.742Z,72.02
2019-01-24T08:31:46.137Z,70.96
2019-01-24T08:32:45.730Z,70.54
2019-01-24T08:33:45.761Z,70.54
2019-01-24T08:34:45.700Z,70.40
2019-01-24T08:35:45.722Z,71.06
2019-01-24T08:36:45.684Z,70.86
2019-01-24T08:37:45.660Z,70.12
2019-01-24T08:38:45.663Z,70.01
2019-01-24T08:39:45.658Z,69.38
2019-01-24T08:40:45.646Z,70.36
2019-01-24T08:41:45.668Z,70.43
2019-01-24T08:42:45.620Z,70.43
2019-01-24T08:43:45.625Z,70.12
2019-01-24T08:44:45.597Z,69.59
2019-01-24T08:45:45.603Z,70.64
2019-01-24T08:46:45.585Z,70.43
2019-01-24T08:47:45.567Z,70.75
2019-01-24T08:48:45.571Z,69.27
2019-01-24T08:49:45.546Z,68.93
2019-01-24T08:50:45.534Z,68.85
2019-01-24T08:51:45.530Z,69.59
2019-01-24T08:52:45.512Z,69.87
2019-01-24T08:53:45.554Z,69.56
2019-01-24T08:54:45.489Z,68.65
2019-01-24T08:55:45.469Z,69.38
2019-01-24T08:56:45.474Z,69.56
2019-01-24T08:57:45.471Z,70.22
2019-01-24T08:58:45.453Z,68.93
2019-01-24T08:59:45.462Z,68.72
2019-01-24T09:00:45.436Z,69.24
2019-01-24T09:01:45.427Z,68.75
2019-01-24T09:02:45.410Z,69.35
2019-01-24T09:03:45.414Z,69.35
2019-01-24T09:04:45.393Z,68.82
2019-01-24T09:05:45.383Z,68.93
2019-01-24T09:06:45.355Z,68.72
2019-01-24T09:07:45.363Z,69.03
2019-01-24T09:08:45.351Z,68.72
2019-01-24T09:09:45.346Z,69.35
2019-01-24T09:10:45.348Z,68.82
2019-01-24T09:11:45.312Z,68.48
2019-01-24T09:12:45.320Z,68.30
2019-01-24T09:13:45.289Z,68.08
2019-01-24T09:14:45.292Z,68.08
2019-01-24T09:15:45.261Z,68.08
2019-01-24T09:16:45.266Z,68.30
2019-01-24T09:17:45.228Z,68.61
2019-01-24T09:18:45.230Z,69.35
2019-01-24T09:19:45.227Z,68.82
2019-01-24T09:20:45.206Z,69.45
2019-01-24T09:21:45.226Z,69.24
2019-01-24T09:22:45.198Z,68.40
2019-01-24T09:23:45.220Z,67.88
2019-01-24T09:24:45.172Z,68.19
2019-01-24T09:25:45.173Z,68.08
2019-01-24T09:26:45.149Z,68.08
2019-01-24T09:27:45.157Z,67.66
2019-01-24T09:28:45.133Z,68.69
2019-01-24T09:29:45.115Z,67.74
2019-01-24T09:30:45.109Z,67.85
2019-01-24T09:31:45.100Z,67.53
2019-01-24T09:32:45.105Z,67.00
2019-01-24T09:33:45.081Z,67.24
2019-01-24T09:34:45.067Z,66.90
2019-01-24T09:35:45.046Z,67.63
2019-01-24T09:36:45.076Z,66.82
2019-01-24T09:37:45.045Z,67.56
2019-01-24T09:38:45.011Z,66.93
2019-01-24T09:39:45.002Z,67.03
2019-01-24T09:40:44.988Z,67.66
2019-01-24T09:41:44.982Z,68.43
2019-01-24T09:42:45.148Z,68.30
2019-01-24T09:43:44.965Z,68.43
2019-01-24T09:44:44.970Z,67.88
2019-01-24T09:45:44.977Z,68.96
2019-01-24T09:46:44.929Z,68.75
2019-01-24T09:47:44.928Z,69.35
2019-01-24T09:48:44.914Z,68.43
2019-01-24T09:49:44.917Z,68.12
2019-01-24T09:50:44.905Z,68.23
2019-01-24T09:51:44.883Z,68.54
2019-01-24T09:52:44.877Z,67.80
2019-01-24T09:53:44.881Z,68.85
2019-01-24T09:54:44.858Z,69.49
2019-01-24T09:55:44.853Z,68.72
2019-01-24T09:56:44.876Z,69.27
2019-01-24T09:57:44.820Z,68.85
2019-01-24T09:58:44.824Z,68.96
2019-01-24T09:59:44.781Z,68.96
2019-01-24T10:00:44.777Z,69.17
2019-01-24T10:01:44.773Z,68.68
2019-01-24T10:02:44.763Z,69.62
2019-01-24T10:03:44.751Z,69.38
2019-01-24T10:04:44.778Z,68.65
2019-01-24T10:05:44.728Z,69.14
2019-01-24T10:06:44.725Z,68.75
2019-01-24T10:07:44.704Z,68.85
2019-01-24T10:08:44.701Z,69.14
2019-01-24T10:09:44.729Z,69.77
2019-01-24T10:10:44.695Z,69.98
2019-01-24T10:11:44.656Z,69.24
2019-01-24T10:12:44.649Z,68.93
2019-01-24T10:13:44.651Z,69.56
2019-01-24T10:14:44.650Z,69.74
2019-01-24T10:15:44.657Z,69.32
2019-01-24T10:16:44.630Z,69.42
2019-01-24T10:17:44.605Z,69.00
2019-01-24T10:18:44.597Z,69.84
2019-01-24T10:19:44.591Z,70.06
2019-01-24T10:20:44.562Z,69.64
2019-01-24T10:21:44.569Z,69.00
2019-01-24T10:22:44.557Z,69.00
2019-01-24T10:23:44.543Z,70.16
2019-01-24T10:24:44.526Z,69.07
2019-01-24T10:25:44.520Z,69.39
2019-01-24T10:26:44.528Z,68.65
2019-01-24T10:27:44.514Z,67.85
2019-01-24T10:28:44.500Z,67.95
2019-01-24T10:29:44.486Z,67.85
2019-01-24T10:30:44.458Z,69.32
2019-01-24T10:31:44.445Z,69.10
2019-01-24T10:32:44.455Z,68.55
2019-01-24T10:33:44.450Z,68.48
2019-01-24T10:34:44.439Z,69.10
2019-01-24T10:35:44.410Z,68.87
2019-01-24T10:36:44.435Z,69.18
2019-01-24T10:37:44.401Z,67.82
2019-01-24T10:38:44.372Z,68.34
2019-01-24T10:39:44.376Z,68.55
2019-01-24T10:40:44.380Z,68.05
2019-01-24T10:41:44.355Z,68.34
2019-01-24T10:42:44.341Z,68.24
2019-01-24T10:43:44.337Z,68.58
2019-01-24T10:44:44.310Z,68.13
2019-01-24T10:45:44.293Z,68.69
2019-01-24T10:46:44.295Z,68.69
2019-01-24T10:47:44.333Z,68.48
2019-01-24T10:48:44.283Z,68.16
2019-01-24T10:49:44.267Z,68.34
2019-01-24T10:50:44.282Z,68.44
2019-01-24T10:51:44.236Z,66.66
2019-01-24T10:52:44.222Z,67.43
2019-01-24T10:53:44.221Z,68.16
2019-01-24T10:54:44.209Z,67.85
2019-01-24T10:55:44.215Z,67.95
2019-01-24T10:56:44.220Z,66.93
2019-01-24T10:57:44.163Z,68.48
2019-01-24T10:58:44.210Z,67.00
2019-01-24T10:59:44.169Z,66.72
2019-01-24T11:00:44.146Z,68.08
2019-01-24T11:01:44.143Z,67.66
2019-01-24T11:02:44.167Z,68.30
2019-01-24T11:03:44.121Z,68.40
2019-01-24T11:04:44.105Z,68.37
2019-01-24T11:05:44.085Z,68.05
2019-01-24T11:06:49.862Z,68.27
2019-01-24T11:07:45.103Z,66.48
2019-01-24T11:08:44.065Z,67.85
2019-01-24T11:09:44.059Z,68.48
2019-01-24T11:10:44.030Z,68.05
2019-01-24T11:11:44.030Z,68.37
2019-01-24T11:12:44.022Z,68.05
2019-01-24T11:13:44.031Z,68.48
2019-01-24T11:14:44.012Z,68.02
2019-01-24T11:15:43.984Z,68.34
2019-01-24T11:16:43.967Z,68.48
2019-01-24T11:17:43.955Z,68.65
2019-01-24T11:18:43.974Z,68.87
2019-01-24T11:19:43.970Z,68.24
2019-01-24T11:20:43.931Z,68.05
2019-01-24T11:21:43.933Z,69.07
2019-01-24T11:22:43.900Z,67.95
2019-01-24T11:23:43.896Z,68.58
2019-01-24T11:24:43.925Z,69.10
2019-01-24T11:25:43.872Z,68.69
2019-01-24T11:26:43.873Z,69.07
2019-01-24T11:27:43.869Z,69.21
2019-01-24T11:28:43.841Z,68.90
2019-01-24T11:29:43.829Z,69.21
2019-01-24T11:30:43.848Z,69.32
2019-01-24T11:31:43.815Z,69.32
2019-01-24T11:32:43.814Z,69.32
2019-01-24T11:33:43.809Z,70.16
2019-01-24T11:34:43.778Z,69.21
2019-01-24T11:35:43.789Z,69.21
2019-01-24T11:36:43.760Z,68.90
2019-01-24T11:37:43.743Z,69.95
2019-01-24T11:38:43.740Z,68.90
2019-01-24T11:39:43.732Z,69.32
2019-01-24T11:40:43.743Z,69.42
2019-01-24T11:41:43.730Z,68.79
2019-01-24T11:42:43.698Z,69.32
2019-01-24T11:43:43.682Z,69.21
2019-01-24T11:44:43.679Z,69.32
2019-01-24T11:45:43.665Z,68.58
2019-01-24T11:46:43.670Z,68.69
2019-01-24T11:47:43.631Z,69.21
2019-01-24T11:48:43.660Z,69.18
2019-01-24T11:49:43.619Z,68.90
2019-01-24T11:50:43.628Z,70.16
2019-01-24T11:51:43.620Z,69.00
2019-01-24T11:52:43.595Z,69.64
2019-01-24T11:53:43.603Z,69.42
2019-01-24T11:54:43.557Z,69.10
2019-01-24T11:55:43.555Z,69.00
2019-01-24T11:56:43.534Z,69.21
2019-01-24T11:57:43.528Z,70.65
2019-01-24T11:58:43.554Z,69.92
2019-01-24T11:59:43.513Z,68.97
2019-01-24T12:00:43.493Z,69.71
2019-01-24T12:01:43.500Z,69.71
2019-01-24T12:02:43.492Z,69.07
2019-01-24T12:03:43.478Z,69.29
2019-01-24T12:04:43.495Z,69.07
2019-01-24T12:05:43.453Z,68.02
2019-01-24T12:06:43.444Z,68.02
2019-01-24T12:07:43.425Z,69.29
2019-01-24T12:08:43.407Z,69.29
2019-01-24T12:09:43.406Z,69.00
2019-01-24T12:10:43.420Z,68.58
2019-01-24T12:11:43.421Z,69.32
2019-01-24T12:12:43.371Z,69.95
2019-01-24T12:13:43.380Z,70.37
2019-01-24T12:14:43.343Z,71.66
2019-01-24T12:15:43.359Z,71.31
2019-01-24T12:16:43.339Z,71.11
2019-01-24T12:17:43.332Z,70.72
2019-01-24T12:18:43.303Z,70.82
2019-01-24T12:19:43.298Z,70.61
2019-01-24T12:20:43.314Z,71.24
2019-01-24T12:21:43.282Z,71.56
2019-01-24T12:22:43.271Z,70.72
2019-01-24T12:23:43.260Z,71.38
2019-01-24T12:24:43.250Z,71.80
2019-01-24T12:25:43.252Z,71.83
2019-01-24T12:26:43.257Z,72.44
2019-01-24T12:27:43.211Z,72.44
2019-01-24T12:28:43.198Z,72.54
2019-01-24T12:29:43.196Z,72.44
2019-01-24T12:30:43.187Z,72.36
2019-01-24T12:31:43.176Z,72.25
2019-01-24T12:32:43.191Z,72.36
2019-01-24T12:33:43.200Z,72.47
2019-01-24T12:34:43.146Z,73.41
2019-01-24T12:35:43.152Z,73.31
2019-01-24T12:36:43.133Z,73.21
2019-01-24T12:37:43.140Z,73.41
2019-01-24T12:38:43.095Z,73.03
2019-01-24T12:39:43.086Z,74.47
2019-01-24T12:40:43.074Z,73.76
2019-01-24T12:41:43.062Z,74.11
2019-01-24T12:42:43.058Z,74.11
2019-01-24T12:43:43.071Z,74.22
2019-01-24T12:44:43.038Z,74.64
2019-01-24T12:45:43.041Z,74.32
2019-01-24T12:46:43.013Z,74.54
2019-01-24T12:47:43.012Z,74.74
2019-01-24T12:48:43.021Z,74.19
2019-01-24T12:49:42.988Z,74.61
2019-01-24T12:50:43.559Z,74.22
2019-01-24T12:51:42.984Z,74.32
2019-01-24T12:52:42.941Z,75.03